Rogue Valley International Medford Airport Medford US
ICAO: KMFR
IATA: MFR
Category: Medium
Scheduled Services: Yes

Elevation: 1335 ft
TransAlt. 18000 ft.

Airport Communications:
CASCADE APP/DEP:124.3
ATIS:127.25
CTAF:119.4
GND:121.8
MC MINNVILLE RDO:122.65
MEDFORD TWR:119.4
UNICOM:122.95

KMFR Zoom In..

Runways:

(A) RW 14 length 8800 ft width 150 ft
ILS 110.30 / hdg 142

(B) RW 32 length 8800 ft width 150 ft
---- / hdg 322

Location; KMFR
Day. 19 / Time. 20.53 Zulu
* Altimeter: 30.18
* Temperature: 15° c. 59°f.
* Wind from: 000° Speed 00 kn.
Dewpoint: 03° c.
Visibility: 10 Statute Miles.
Clouds: Scattered 6000 ft.

KMFR 192053Z 00000KT 10SM SCT060 15/03 A3018 RMK AO2 SLP220 T01500028 58010


Wind - Calm.

  YouTube Music Video
 
jpsmedia.com for Web Design  worldairports.se 2018   terms of use